Time;durP1;ratioP1;P1;durP2;ratioP2;P2;SDS_P1;SDS_P2;PMS_P1;PMS_P2;Temp;Humidity;BMP_temperature;BMP_pressure;BME280_temperature;BME280_humidity;BME280_pressure;Samples;Min_cycle;Max_cycle;Signal;HPM_P1;HPM_P2
2021/04/07 00:01:52;;;;;;;15.93;1.80;;;;;;;;;;5083464;28;20028;-75
2021/04/07 00:04:18;;;;;;;13.38;1.83;;;;;;;;;;5088779;28;20039;-73
2021/04/07 00:06:44;;;;;;;24.88;2.97;;;;;;;;;;5086451;28;20028;-71
2021/04/07 00:09:11;;;;;;;16.58;2.80;;;;;;;;;;5084133;28;20032;-74
2021/04/07 00:11:37;;;;;;;14.00;2.08;;;;;;;;;;5083093;28;20031;-75
2021/04/07 00:14:05;;;;;;;18.40;3.22;;;;;;;;;;5089486;28;20131;-77
2021/04/07 00:16:31;;;;;;;26.98;3.55;;;;;;;;;;5088026;28;20027;-80
2021/04/07 00:18:57;;;;;;;19.17;2.95;;;;;;;;;;5089886;28;20040;-76
2021/04/07 00:21:23;;;;;;;20.40;2.92;;;;;;;;;;5083627;28;20028;-74
2021/04/07 00:23:49;;;;;;;23.02;3.63;;;;;;;;;;5090093;28;20547;-81
2021/04/07 00:26:15;;;;;;;18.02;3.33;;;;;;;;;;5068833;28;20024;-73
2021/04/07 00:28:41;;;;;;;17.90;3.45;;;;;;;;;;5078788;28;20074;-73
2021/04/07 00:31:08;;;;;;;20.65;2.90;;;;;;;;;;5064414;28;20036;-71
2021/04/07 00:33:34;;;;;;;11.23;1.75;;;;;;;;;;5087535;28;20055;-72
2021/04/07 00:36:00;;;;;;;26.30;4.43;;;;;;;;;;5088798;28;20623;-71
2021/04/07 00:38:26;;;;;;;23.98;3.17;;;;;;;;;;5087212;28;20036;-72
2021/04/07 00:40:52;;;;;;;32.65;4.13;;;;;;;;;;5070021;28;20426;-72
2021/04/07 00:43:18;;;;;;;31.70;4.68;;;;;;;;;;5086376;28;20036;-72
2021/04/07 00:45:44;;;;;;;35.03;4.85;;;;;;;;;;5085478;28;20047;-76
2021/04/07 00:48:10;;;;;;;22.05;3.85;;;;;;;;;;5087520;28;20024;-74
2021/04/07 00:50:37;;;;;;;23.75;4.45;;;;;;;;;;5085975;28;20020;-74
2021/04/07 00:53:03;;;;;;;27.48;5.50;;;;;;;;;;5088984;28;20064;-72
2021/04/07 00:55:30;;;;;;;23.30;3.47;;;;;;;;;;5091148;28;20027;-74
2021/04/07 00:57:57;;;;;;;18.98;2.67;;;;;;;;;;5085265;28;20033;-72
2021/04/07 01:00:23;;;;;;;26.55;3.80;;;;;;;;;;5086882;28;20110;-74
2021/04/07 01:02:53;;;;;;;18.10;4.72;;;;;;;;;;5069586;28;20024;-71
2021/04/07 01:05:19;;;;;;;22.83;4.38;;;;;;;;;;5081284;28;20115;-70
2021/04/07 01:07:45;;;;;;;25.02;4.20;;;;;;;;;;5087096;28;20421;-72
2021/04/07 01:10:12;;;;;;;19.10;2.72;;;;;;;;;;5067543;28;20069;-72
2021/04/07 01:12:39;;;;;;;18.25;2.35;;;;;;;;;;5088114;28;20028;-73
2021/04/07 01:15:06;;;;;;;21.02;3.53;;;;;;;;;;5091312;28;20036;-70
2021/04/07 01:17:32;;;;;;;19.90;3.03;;;;;;;;;;5086805;28;20039;-70
2021/04/07 01:19:58;;;;;;;9.88;2.42;;;;;;;;;;5090737;28;20027;-73
2021/04/07 01:22:25;;;;;;;22.75;3.30;;;;;;;;;;5092290;28;20024;-71
2021/04/07 01:24:51;;;;;;;17.38;3.78;;;;;;;;;;5087238;28;20025;-73
2021/04/07 01:27:17;;;;;;;25.20;3.75;;;;;;;;;;5085003;28;20044;-73
2021/04/07 01:29:44;;;;;;;41.45;7.60;;;;;;;;;;5090792;28;20058;-70
2021/04/07 01:32:10;;;;;;;22.92;3.58;;;;;;;;;;5091860;28;20028;-73
2021/04/07 01:34:41;;;;;;;28.23;3.92;;;;;;;;;;5073305;28;20032;-72
2021/04/07 01:37:07;;;;;;;21.50;3.55;;;;;;;;;;5080403;28;20028;-74
2021/04/07 01:39:33;;;;;;;25.48;3.90;;;;;;;;;;5085032;28;20036;-71
2021/04/07 01:41:59;;;;;;;23.95;4.00;;;;;;;;;;5091122;28;20036;-74
2021/04/07 01:44:26;;;;;;;25.83;4.28;;;;;;;;;;5087292;28;20486;-73
2021/04/07 01:46:52;;;;;;;14.35;2.17;;;;;;;;;;5073436;28;20085;-74
2021/04/07 01:49:18;;;;;;;17.52;3.22;;;;;;;;;;5077872;28;20036;-76
2021/04/07 01:51:45;;;;;;;25.38;4.18;;;;;;;;;;5072209;28;20111;-73
2021/04/07 01:54:12;;;;;;;32.58;3.63;;;;;;;;;;5086803;28;20025;-73
2021/04/07 01:56:48;;;;;;;19.92;4.07;;;;;;;;;;5091403;28;20024;-75
2021/04/07 01:59:15;;;;;;;30.80;5.22;;;;;;;;;;5090329;28;20024;-73
2021/04/07 02:01:41;;;;;;;23.90;5.35;;;;;;;;;;5072868;28;20020;-75
2021/04/07 02:04:08;;;;;;;13.93;2.65;;;;;;;;;;5089355;28;20119;-72
2021/04/07 02:06:34;;;;;;;18.98;3.47;;;;;;;;;;5091536;28;20015;-73
2021/04/07 02:09:00;;;;;;;24.17;4.80;;;;;;;;;;5086010;28;20024;-73
2021/04/07 02:11:26;;;;;;;22.83;3.42;;;;;;;;;;5087206;28;20494;-73
2021/04/07 02:13:52;;;;;;;28.48;4.65;;;;;;;;;;5072397;28;20154;-75
2021/04/07 02:16:18;;;;;;;23.45;3.85;;;;;;;;;;5079024;28;20028;-77
2021/04/07 02:18:45;;;;;;;11.43;2.50;;;;;;;;;;5087625;28;20028;-77
2021/04/07 02:21:12;;;;;;;22.35;5.07;;;;;;;;;;5089641;28;20486;-77
2021/04/07 02:23:39;;;;;;;24.50;4.30;;;;;;;;;;5089544;28;20028;-73
2021/04/07 02:26:08;;;;;;;19.35;3.47;;;;;;;;;;5090650;28;20032;-73
2021/04/07 02:28:35;;;;;;;23.75;3.70;;;;;;;;;;5089878;28;20024;-74
2021/04/07 02:31:01;;;;;;;28.85;5.28;;;;;;;;;;5091592;28;20116;-75
2021/04/07 02:33:27;;;;;;;18.50;3.30;;;;;;;;;;5072038;28;20024;-75
2021/04/07 02:35:53;;;;;;;25.42;3.13;;;;;;;;;;5071243;28;20043;-75
2021/04/07 02:38:20;;;;;;;16.92;2.90;;;;;;;;;;5070018;28;20033;-77
2021/04/07 02:40:46;;;;;;;17.92;2.85;;;;;;;;;;5084612;28;20078;-74
2021/04/07 02:43:12;;;;;;;13.40;3.40;;;;;;;;;;5089874;28;20020;-76
2021/04/07 02:45:38;;;;;;;19.65;3.40;;;;;;;;;;5089741;28;20047;-76
2021/04/07 02:48:04;;;;;;;20.08;3.15;;;;;;;;;;5081571;28;20429;-76
2021/04/07 02:50:30;;;;;;;18.15;2.83;;;;;;;;;;5070729;28;20020;-75
2021/04/07 02:52:56;;;;;;;19.80;3.33;;;;;;;;;;5081165;28;20550;-74
2021/04/07 02:55:22;;;;;;;32.65;4.22;;;;;;;;;;5062284;28;20448;-73
2021/04/07 02:57:48;;;;;;;19.05;2.97;;;;;;;;;;5089313;28;20051;-76
2021/04/07 03:00:15;;;;;;;22.75;3.53;;;;;;;;;;5088974;28;20072;-76
2021/04/07 03:02:41;;;;;;;11.55;3.20;;;;;;;;;;5089688;28;20520;-75
2021/04/07 03:05:07;;;;;;;18.50;3.15;;;;;;;;;;5081685;28;20037;-72
2021/04/07 03:07:33;;;;;;;8.23;2.55;;;;;;;;;;5088037;28;20015;-75
2021/04/07 03:09:59;;;;;;;13.60;3.15;;;;;;;;;;5077050;28;20016;-76
2021/04/07 03:12:25;;;;;;;16.33;3.65;;;;;;;;;;5089878;28;20098;-76
2021/04/07 03:14:51;;;;;;;16.90;3.15;;;;;;;;;;5089921;28;20044;-75
2021/04/07 03:17:17;;;;;;;16.42;2.80;;;;;;;;;;5088638;28;20059;-73
2021/04/07 03:19:44;;;;;;;18.02;2.50;;;;;;;;;;5088076;28;20059;-73
2021/04/07 03:22:10;;;;;;;21.70;2.80;;;;;;;;;;5087108;28;20155;-74
2021/04/07 03:24:36;;;;;;;14.18;2.63;;;;;;;;;;5068651;28;20036;-76
2021/04/07 03:27:02;;;;;;;24.33;3.42;;;;;;;;;;5078065;28;20032;-72
2021/04/07 03:29:28;;;;;;;18.55;3.13;;;;;;;;;;5065575;28;20046;-73
2021/04/07 03:31:54;;;;;;;19.10;4.03;;;;;;;;;;5080577;28;20062;-72
2021/04/07 03:34:20;;;;;;;16.95;3.95;;;;;;;;;;5089707;28;20035;-71
2021/04/07 03:36:47;;;;;;;18.95;3.10;;;;;;;;;;5089734;28;20024;-73
2021/04/07 03:39:13;;;;;;;19.25;3.45;;;;;;;;;;5087622;28;20047;-74
2021/04/07 03:41:39;;;;;;;16.90;3.33;;;;;;;;;;5090006;28;20046;-71
2021/04/07 03:44:05;;;;;;;13.30;3.08;;;;;;;;;;5069748;28;20054;-72
2021/04/07 03:46:31;;;;;;;14.15;2.90;;;;;;;;;;5089068;28;20433;-71
2021/04/07 03:48:57;;;;;;;21.98;3.50;;;;;;;;;;5088753;28;20020;-70
2021/04/07 03:51:23;;;;;;;19.90;3.17;;;;;;;;;;5088612;28;20024;-71
2021/04/07 03:53:49;;;;;;;24.27;3.55;;;;;;;;;;5087914;28;20032;-72
2021/04/07 03:56:16;;;;;;;12.30;2.80;;;;;;;;;;5088555;28;20098;-70
2021/04/07 03:58:42;;;;;;;19.63;4.28;;;;;;;;;;5075128;28;20032;-72
2021/04/07 04:01:08;;;;;;;18.77;3.35;;;;;;;;;;5070688;28;20032;-69
2021/04/07 04:03:34;;;;;;;11.82;2.85;;;;;;;;;;5087119;28;20085;-69
2021/04/07 04:06:00;;;;;;;23.42;4.25;;;;;;;;;;5079253;28;20032;-70
2021/04/07 04:08:26;;;;;;;22.80;3.33;;;;;;;;;;5086628;28;20021;-69
2021/04/07 04:10:52;;;;;;;15.40;4.18;;;;;;;;;;5082223;28;20414;-69
2021/04/07 04:13:18;;;;;;;15.65;2.42;;;;;;;;;;5087053;28;20477;-71
2021/04/07 04:15:45;;;;;;;13.07;2.75;;;;;;;;;;5079865;28;20471;-70
2021/04/07 04:18:11;;;;;;;15.52;2.83;;;;;;;;;;5084366;28;20044;-69
2021/04/07 04:20:38;;;;;;;13.07;3.53;;;;;;;;;;5080072;28;20089;-69
2021/04/07 04:23:04;;;;;;;11.00;2.60;;;;;;;;;;5082294;28;20066;-69
2021/04/07 04:25:30;;;;;;;13.23;2.40;;;;;;;;;;5079675;28;20043;-69
2021/04/07 04:27:56;;;;;;;18.63;2.35;;;;;;;;;;5079941;28;20069;-68
2021/04/07 04:30:23;;;;;;;5.47;1.90;;;;;;;;;;5074320;28;20036;-71
2021/04/07 04:32:49;;;;;;;23.50;3.42;;;;;;;;;;5063410;28;20055;-68
2021/04/07 04:35:15;;;;;;;15.73;3.03;;;;;;;;;;5078685;28;20032;-69
2021/04/07 04:37:42;;;;;;;14.40;2.63;;;;;;;;;;5088176;28;20028;-69
2021/04/07 04:40:12;;;;;;;21.27;2.63;;;;;;;;;;5088232;28;20028;-68
2021/04/07 04:42:38;;;;;;;21.33;2.67;;;;;;;;;;5089280;28;20038;-69
2021/04/07 04:45:04;;;;;;;15.38;2.38;;;;;;;;;;5067562;28;20029;-69
2021/04/07 04:47:31;;;;;;;25.98;2.92;;;;;;;;;;5087107;28;20039;-69
2021/04/07 04:49:57;;;;;;;13.50;3.10;;;;;;;;;;5092441;28;20096;-69
2021/04/07 04:52:23;;;;;;;19.67;4.10;;;;;;;;;;5066318;28;20024;-68
2021/04/07 04:54:49;;;;;;;12.77;2.58;;;;;;;;;;5073493;28;20024;-70
2021/04/07 04:57:16;;;;;;;13.93;2.58;;;;;;;;;;5093444;28;20559;-70
2021/04/07 04:59:42;;;;;;;18.10;5.05;;;;;;;;;;5088962;28;20025;-71
2021/04/07 05:02:08;;;;;;;24.58;2.97;;;;;;;;;;5092170;28;20533;-69
2021/04/07 05:04:34;;;;;;;13.50;2.10;;;;;;;;;;5092841;28;20120;-70
2021/04/07 05:07:01;;;;;;;10.43;2.50;;;;;;;;;;5091275;28;20063;-70
2021/04/07 05:09:27;;;;;;;9.82;2.15;;;;;;;;;;5093208;28;20020;-70
2021/04/07 05:11:53;;;;;;;13.38;1.88;;;;;;;;;;5092457;28;20107;-71
2021/04/07 05:14:19;;;;;;;14.25;2.42;;;;;;;;;;5088873;28;20040;-70
2021/04/07 05:16:45;;;;;;;8.70;2.20;;;;;;;;;;5092589;28;20074;-72
2021/04/07 05:19:12;;;;;;;18.55;3.17;;;;;;;;;;5087788;28;20027;-68
2021/04/07 05:21:38;;;;;;;21.50;2.78;;;;;;;;;;5089923;28;20098;-70
2021/04/07 05:24:04;;;;;;;22.13;3.38;;;;;;;;;;5091423;28;20035;-68
2021/04/07 05:26:30;;;;;;;12.63;2.63;;;;;;;;;;5080178;28;20050;-70
2021/04/07 05:28:56;;;;;;;19.90;3.63;;;;;;;;;;5081679;28;20025;-69
2021/04/07 05:31:22;;;;;;;22.77;2.92;;;;;;;;;;5090181;28;20023;-69
2021/04/07 05:33:48;;;;;;;18.00;2.42;;;;;;;;;;5081735;28;20035;-68
2021/04/07 05:36:15;;;;;;;18.63;2.95;;;;;;;;;;5085688;28;20028;-70
2021/04/07 05:38:41;;;;;;;33.60;5.55;;;;;;;;;;5084886;28;20039;-70
2021/04/07 05:41:08;;;;;;;19.88;3.63;;;;;;;;;;5084018;28;20035;-68
2021/04/07 05:43:36;;;;;;;20.92;4.45;;;;;;;;;;5079747;28;20073;-70
2021/04/07 05:46:02;;;;;;;18.15;3.85;;;;;;;;;;5081555;28;20604;-70
2021/04/07 05:48:28;;;;;;;30.17;5.57;;;;;;;;;;5079237;28;20029;-70
2021/04/07 05:50:55;;;;;;;26.42;6.57;;;;;;;;;;5084596;28;20050;-72
2021/04/07 05:53:21;;;;;;;33.20;6.25;;;;;;;;;;5088014;28;20031;-69
2021/04/07 05:55:52;;;;;;;18.85;3.22;;;;;;;;;;5084576;28;20028;-71
2021/04/07 05:58:18;;;;;;;41.83;4.15;;;;;;;;;;5065481;28;20065;-70
2021/04/07 06:00:45;;;;;;;26.35;3.25;;;;;;;;;;5090984;28;20408;-71
2021/04/07 06:03:12;;;;;;;26.35;5.55;;;;;;;;;;5089375;28;20042;-69
2021/04/07 06:05:39;;;;;;;24.70;4.53;;;;;;;;;;5077800;28;20028;-69
2021/04/07 06:08:05;;;;;;;30.60;6.57;;;;;;;;;;5086008;28;20111;-69
2021/04/07 06:10:32;;;;;;;22.33;4.93;;;;;;;;;;5087445;28;20028;-73
2021/04/07 06:12:59;;;;;;;32.88;5.75;;;;;;;;;;5084871;28;20036;-76
2021/04/07 06:15:25;;;;;;;26.70;5.97;;;;;;;;;;5081808;28;20050;-71
2021/04/07 06:18:02;;;;;;;31.55;5.65;;;;;;;;;;5084529;28;20490;-71
2021/04/07 06:20:30;;;;;;;20.95;3.15;;;;;;;;;;5088172;28;20031;-68
2021/04/07 06:22:56;;;;;;;39.30;6.18;;;;;;;;;;5069717;28;20509;-74
2021/04/07 06:25:22;;;;;;;27.40;5.03;;;;;;;;;;5083820;28;20127;-75
2021/04/07 06:27:59;;;;;;;25.70;4.30;;;;;;;;;;5081632;28;20020;-73
2021/04/07 06:30:44;;;;;;;16.83;4.47;;;;;;;;;;5085637;28;20020;-72
2021/04/07 06:33:10;;;;;;;34.17;4.63;;;;;;;;;;5083552;28;20069;-78
2021/04/07 06:35:36;;;;;;;34.70;5.43;;;;;;;;;;5083413;28;20025;-73
2021/04/07 06:38:02;;;;;;;29.50;5.85;;;;;;;;;;5076159;28;20020;-68
2021/04/07 06:40:28;;;;;;;31.42;6.57;;;;;;;;;;5084408;28;20093;-72
2021/04/07 06:42:54;;;;;;;31.42;6.55;;;;;;;;;;5077102;28;20028;-72
2021/04/07 06:45:21;;;;;;;46.53;9.35;;;;;;;;;;5071124;28;20036;-77
2021/04/07 06:47:48;;;;;;;33.47;6.22;;;;;;;;;;5082466;28;20024;-73
2021/04/07 06:50:15;;;;;;;30.25;5.97;;;;;;;;;;5065118;28;20012;-75
2021/04/07 06:52:43;;;;;;;34.85;6.75;;;;;;;;;;5079812;28;20023;-72
2021/04/07 06:55:09;;;;;;;37.53;6.68;;;;;;;;;;5084968;28;20497;-70
2021/04/07 06:57:36;;;;;;;30.35;6.55;;;;;;;;;;5059148;28;20379;-76
2021/04/07 07:00:06;;;;;;;35.05;6.50;;;;;;;;;;5067929;28;20062;-75
2021/04/07 07:02:32;;;;;;;36.25;6.45;;;;;;;;;;5058996;28;20266;-73
2021/04/07 07:04:58;;;;;;;29.20;5.32;;;;;;;;;;5085200;28;20027;-78
2021/04/07 07:07:24;;;;;;;25.83;5.30;;;;;;;;;;5080133;28;20020;-76
2021/04/07 07:09:54;;;;;;;25.63;4.50;;;;;;;;;;5064659;28;20040;-74
2021/04/07 07:12:20;;;;;;;26.83;3.65;;;;;;;;;;5082497;28;20493;-73
2021/04/07 07:14:47;;;;;;;29.63;5.45;;;;;;;;;;5083910;28;20035;-74
2021/04/07 07:17:13;;;;;;;27.80;6.32;;;;;;;;;;5055035;28;20426;-73
2021/04/07 07:19:39;;;;;;;27.73;4.90;;;;;;;;;;5081083;28;20076;-77
2021/04/07 07:22:07;;;;;;;26.98;5.93;;;;;;;;;;5062401;28;20028;-77
2021/04/07 07:24:34;;;;;;;39.47;6.18;;;;;;;;;;5079996;28;20047;-74
2021/04/07 07:27:01;;;;;;;33.78;5.47;;;;;;;;;;5083743;28;20024;-76
2021/04/07 07:29:28;;;;;;;21.60;3.88;;;;;;;;;;5081162;28;20012;-74
2021/04/07 07:32:13;;;;;;;25.13;4.07;;;;;;;;;;5080532;28;20085;-74
2021/04/07 07:34:39;;;;;;;38.33;6.03;;;;;;;;;;5080144;28;20024;-79
2021/04/07 07:37:06;;;;;;;31.23;5.53;;;;;;;;;;5076131;28;20055;-84
2021/04/07 07:39:33;;;;;;;33.85;6.78;;;;;;;;;;5062401;28;20042;-80
2021/04/07 07:42:04;;;;;;;32.72;7.43;;;;;;;;;;5079352;28;20508;-72
2021/04/07 07:44:31;;;;;;;26.58;5.68;;;;;;;;;;5090189;28;20059;-75
2021/04/07 07:47:03;;;;;;;29.58;5.05;;;;;;;;;;5081903;28;20093;-72
2021/04/07 07:49:30;;;;;;;28.17;5.60;;;;;;;;;;5076180;28;20077;-75
2021/04/07 07:51:56;;;;;;;38.88;8.13;;;;;;;;;;5081618;28;20075;-74
2021/04/07 07:54:23;;;;;;;33.30;7.47;;;;;;;;;;5080295;28;21174;-74
2021/04/07 07:56:49;;;;;;;30.02;5.10;;;;;;;;;;5088638;28;20130;-81
2021/04/07 07:59:25;;;;;;;32.55;4.88;;;;;;;;;;5080090;28;20062;-74
2021/04/07 08:01:51;;;;;;;21.77;4.25;;;;;;;;;;5082662;28;20020;-73
2021/04/07 08:04:18;;;;;;;34.00;6.30;;;;;;;;;;5083074;28;20024;-74
2021/04/07 08:06:44;;;;;;;26.33;6.22;;;;;;;;;;5079567;28;20040;-77
2021/04/07 08:09:10;;;;;;;32.88;5.75;;;;;;;;;;5078653;28;20028;-80
2021/04/07 08:11:36;;;;;;;24.65;4.75;;;;;;;;;;5080388;28;20027;-75
2021/04/07 08:14:03;;;;;;;28.17;4.38;;;;;;;;;;5080199;28;20055;-76
2021/04/07 08:16:31;;;;;;;39.22;5.57;;;;;;;;;;5065834;28;20064;-79
2021/04/07 08:18:58;;;;;;;35.13;6.00;;;;;;;;;;5079267;28;20520;-74
2021/04/07 08:21:24;;;;;;;21.65;5.60;;;;;;;;;;5084216;28;20440;-76
2021/04/07 08:23:57;;;;;;;25.67;5.57;;;;;;;;;;5090204;28;20493;-76
2021/04/07 08:26:25;;;;;;;34.97;7.00;;;;;;;;;;5086395;28;20027;-72
2021/04/07 08:28:51;;;;;;;31.27;5.43;;;;;;;;;;5073898;28;20471;-77
2021/04/07 08:31:19;;;;;;;31.38;5.72;;;;;;;;;;5082526;28;20024;-71
2021/04/07 08:33:49;;;;;;;25.15;4.68;;;;;;;;;;5087327;28;20024;-74
2021/04/07 08:36:18;;;;;;;22.20;4.85;;;;;;;;;;5085230;28;20024;-73
2021/04/07 08:38:44;;;;;;;32.60;5.22;;;;;;;;;;5081944;28;20020;-75
2021/04/07 08:41:12;;;;;;;39.58;7.68;;;;;;;;;;5083792;28;20424;-76
2021/04/07 08:43:38;;;;;;;30.20;6.20;;;;;;;;;;5083493;28;20287;-76
2021/04/07 08:46:11;;;;;;;31.63;6.07;;;;;;;;;;5085960;28;20024;-72
2021/04/07 08:48:38;;;;;;;30.50;6.57;;;;;;;;;;5087757;28;20510;-74
2021/04/07 08:51:08;;;;;;;24.85;4.00;;;;;;;;;;5086523;28;20016;-81
2021/04/07 08:53:34;;;;;;;43.85;7.22;;;;;;;;;;5089163;28;20043;-75
2021/04/07 08:56:05;;;;;;;30.38;4.68;;;;;;;;;;5082692;28;20093;-75
2021/04/07 08:58:31;;;;;;;29.25;6.00;;;;;;;;;;5079585;28;20460;-74
2021/04/07 09:00:58;;;;;;;31.73;6.28;;;;;;;;;;5083898;28;20035;-76
2021/04/07 09:03:25;;;;;;;24.85;4.50;;;;;;;;;;5086728;28;20032;-75
2021/04/07 09:05:52;;;;;;;30.50;5.68;;;;;;;;;;5082925;28;20036;-74
2021/04/07 09:08:28;;;;;;;37.63;7.78;;;;;;;;;;5082748;28;20028;-75
2021/04/07 09:10:55;;;;;;;24.02;4.90;;;;;;;;;;5080082;28;20028;-79
2021/04/07 09:13:22;;;;;;;33.60;5.78;;;;;;;;;;5083626;28;20051;-76
2021/04/07 09:15:49;;;;;;;34.58;5.70;;;;;;;;;;5083540;28;20678;-77
2021/04/07 09:18:16;;;;;;;26.75;5.82;;;;;;;;;;5083313;28;20036;-77
2021/04/07 09:20:44;;;;;;;28.88;6.15;;;;;;;;;;5064399;28;20052;-81
2021/04/07 09:23:17;;;;;;;25.23;4.47;;;;;;;;;;5087204;28;20038;-81
2021/04/07 09:25:45;;;;;;;27.40;4.28;;;;;;;;;;5067958;28;20031;-76
2021/04/07 09:28:12;;;;;;;34.70;5.35;;;;;;;;;;5079997;28;20095;-79
2021/04/07 09:30:46;;;;;;;40.80;5.90;;;;;;;;;;5079727;28;20008;-78
2021/04/07 09:33:14;;;;;;;31.58;5.97;;;;;;;;;;5082638;28;20490;-78
2021/04/07 09:35:51;;;;;;;25.35;4.95;;;;;;;;;;5086976;28;20512;-77
2021/04/07 09:38:17;;;;;;;21.10;5.05;;;;;;;;;;5083914;28;20020;-78
2021/04/07 09:40:43;;;;;;;26.40;6.13;;;;;;;;;;5080644;28;20088;-76
2021/04/07 09:43:09;;;;;;;29.35;5.40;;;;;;;;;;5079590;28;20024;-77
2021/04/07 09:45:35;;;;;;;31.08;5.47;;;;;;;;;;5085400;28;20028;-76
2021/04/07 09:48:03;;;;;;;34.20;5.47;;;;;;;;;;5084891;28;20024;-76
2021/04/07 09:50:29;;;;;;;20.63;3.83;;;;;;;;;;5087364;28;20021;-75
2021/04/07 09:52:56;;;;;;;36.35;4.80;;;;;;;;;;5066177;28;20085;-78
2021/04/07 09:55:23;;;;;;;35.33;4.78;;;;;;;;;;5069679;28;20020;-77
2021/04/07 09:58:02;;;;;;;30.48;6.05;;;;;;;;;;5077448;28;20028;-76
2021/04/07 10:00:37;;;;;;;33.85;5.47;;;;;;;;;;5081197;28;20028;-77
2021/04/07 10:03:03;;;;;;;24.75;4.47;;;;;;;;;;5061354;28;20122;-76
2021/04/07 10:05:30;;;;;;;29.00;5.28;;;;;;;;;;5081841;28;20028;-82
2021/04/07 10:08:17;;;;;;;26.67;4.60;;;;;;;;;;5079059;28;20054;-75
2021/04/07 10:10:43;;;;;;;32.13;4.93;;;;;;;;;;5082614;28;20008;-77
2021/04/07 10:13:09;;;;;;;29.80;4.22;;;;;;;;;;5082141;28;20589;-78
2021/04/07 10:15:37;;;;;;;30.50;5.57;;;;;;;;;;5081342;28;20474;-78
2021/04/07 10:18:11;;;;;;;26.63;4.55;;;;;;;;;;5086471;28;20142;-76
2021/04/07 10:20:38;;;;;;;26.23;4.13;;;;;;;;;;5090752;28;20081;-76
2021/04/07 10:23:09;;;;;;;31.35;5.00;;;;;;;;;;5089295;28;20034;-75
2021/04/07 10:25:35;;;;;;;41.42;5.78;;;;;;;;;;5072721;28;20031;-76
2021/04/07 10:28:01;;;;;;;29.38;4.97;;;;;;;;;;5082237;28;20076;-77
2021/04/07 10:30:35;;;;;;;34.75;4.75;;;;;;;;;;5081743;28;20073;-74
2021/04/07 10:33:03;;;;;;;29.65;3.97;;;;;;;;;;5090307;28;20020;-76
2021/04/07 10:35:31;;;;;;;31.98;4.95;;;;;;;;;;5079811;28;20048;-81
2021/04/07 10:38:07;;;;;;;27.73;5.65;;;;;;;;;;5077003;28;20458;-80
2021/04/07 10:40:35;;;;;;;18.42;3.90;;;;;;;;;;5089121;28;21015;-84
2021/04/07 10:43:11;;;;;;;27.58;4.70;;;;;;;;;;5089221;28;20102;-75
2021/04/07 10:45:37;;;;;;;47.08;5.55;;;;;;;;;;5089620;28;20032;-77
2021/04/07 10:48:03;;;;;;;24.58;4.63;;;;;;;;;;5086435;28;20061;-73
2021/04/07 10:50:30;;;;;;;19.48;3.80;;;;;;;;;;5090696;28;20035;-75
2021/04/07 10:52:56;;;;;;;30.33;5.00;;;;;;;;;;5090436;28;20053;-78
2021/04/07 10:55:24;;;;;;;27.70;4.07;;;;;;;;;;5090820;28;20408;-78
2021/04/07 10:57:52;;;;;;;39.78;6.55;;;;;;;;;;5085389;28;20020;-77
2021/04/07 11:00:37;;;;;;;27.48;4.15;;;;;;;;;;5088284;28;20037;-73
2021/04/07 11:03:04;;;;;;;33.85;5.70;;;;;;;;;;5089657;28;20491;-72
2021/04/07 11:05:43;;;;;;;22.13;3.95;;;;;;;;;;5090216;28;20020;-76
2021/04/07 11:08:11;;;;;;;21.50;4.78;;;;;;;;;;5086635;28;20155;-75
2021/04/07 11:10:38;;;;;;;23.90;4.57;;;;;;;;;;5090438;28;20024;-75
2021/04/07 11:13:05;;;;;;;33.75;5.18;;;;;;;;;;5090490;28;20017;-77
2021/04/07 11:15:31;;;;;;;31.65;5.05;;;;;;;;;;5087020;28;20061;-74
2021/04/07 11:17:57;;;;;;;25.52;6.40;;;;;;;;;;5086977;28;20031;-74
2021/04/07 11:20:24;;;;;;;27.00;3.92;;;;;;;;;;5088777;28;20619;-74
2021/04/07 11:22:51;;;;;;;19.67;3.50;;;;;;;;;;5087843;28;20106;-73
2021/04/07 11:25:17;;;;;;;26.67;4.22;;;;;;;;;;5088373;28;20058;-78
2021/04/07 11:27:45;;;;;;;20.40;3.92;;;;;;;;;;5086191;28;20058;-77
2021/04/07 11:30:11;;;;;;;21.13;4.93;;;;;;;;;;5089502;28;20020;-73
2021/04/07 11:32:41;;;;;;;21.00;3.38;;;;;;;;;;5090319;28;20107;-72
2021/04/07 11:40:08;;;;;;;24.30;4.55;;;;;;;;;;5088994;28;20032;-80
2021/04/07 11:45:04;;;;;;;19.33;3.17;;;;;;;;;;5089345;28;20490;-74
2021/04/07 11:47:30;;;;;;;19.48;3.28;;;;;;;;;;5082687;28;20024;-75
2021/04/07 11:49:56;;;;;;;18.52;3.33;;;;;;;;;;5085033;28;20012;-73
2021/04/07 11:52:22;;;;;;;22.40;3.67;;;;;;;;;;5089430;28;20020;-74
2021/04/07 11:54:48;;;;;;;16.90;3.88;;;;;;;;;;5087695;28;20035;-72
2021/04/07 11:57:14;;;;;;;19.13;5.05;;;;;;;;;;5084758;28;20426;-75
2021/04/07 11:59:40;;;;;;;19.23;4.00;;;;;;;;;;5079810;28;20035;-73
2021/04/07 12:02:06;;;;;;;21.45;3.40;;;;;;;;;;5076452;28;20066;-73
2021/04/07 12:04:33;;;;;;;21.38;4.57;;;;;;;;;;5089240;28;20031;-73
2021/04/07 12:07:01;;;;;;;22.25;3.90;;;;;;;;;;5084738;28;20079;-74
2021/04/07 12:09:27;;;;;;;17.90;4.28;;;;;;;;;;5088543;28;20028;-71
2021/04/07 12:11:53;;;;;;;26.27;3.90;;;;;;;;;;5073928;28;20058;-72
2021/04/07 12:14:19;;;;;;;19.65;2.75;;;;;;;;;;5088919;28;20050;-72
2021/04/07 12:16:46;;;;;;;19.58;4.10;;;;;;;;;;5084869;28;20602;-75
2021/04/07 12:19:13;;;;;;;13.20;2.90;;;;;;;;;;5085605;28;20044;-72
2021/04/07 12:21:40;;;;;;;17.92;3.70;;;;;;;;;;5084920;28;20099;-74
2021/04/07 12:24:07;;;;;;;22.83;4.07;;;;;;;;;;5083874;28;20036;-72
2021/04/07 12:26:33;;;;;;;16.20;4.03;;;;;;;;;;5089279;28;20035;-73
2021/04/07 12:28:59;;;;;;;25.13;4.15;;;;;;;;;;5084145;28;20084;-73
2021/04/07 12:31:25;;;;;;;16.00;4.03;;;;;;;;;;5087075;28;20016;-73
2021/04/07 12:33:53;;;;;;;18.65;3.38;;;;;;;;;;5087478;28;20509;-74
2021/04/07 12:36:21;;;;;;;17.98;3.28;;;;;;;;;;5082771;28;20044;-74
2021/04/07 12:38:48;;;;;;;24.70;4.95;;;;;;;;;;5084243;28;20499;-74
2021/04/07 12:41:21;;;;;;;22.33;5.03;;;;;;;;;;5082293;28;20115;-75
2021/04/07 12:43:47;;;;;;;19.02;2.85;;;;;;;;;;5085001;28;20118;-73
2021/04/07 12:46:13;;;;;;;17.00;4.15;;;;;;;;;;5086408;28;20040;-75
2021/04/07 12:48:39;;;;;;;23.98;3.78;;;;;;;;;;5086239;28;20570;-74
2021/04/07 12:51:05;;;;;;;14.00;3.03;;;;;;;;;;5082667;28;20056;-74
2021/04/07 12:53:31;;;;;;;15.98;2.70;;;;;;;;;;5087333;28;20056;-71
2021/04/07 12:55:57;;;;;;;14.38;3.10;;;;;;;;;;5085228;28;20020;-72
2021/04/07 12:58:23;;;;;;;20.40;4.15;;;;;;;;;;5088031;28;20024;-70
2021/04/07 13:00:49;;;;;;;17.73;2.80;;;;;;;;;;5086744;28;20060;-81
2021/04/07 13:03:15;;;;;;;21.90;2.53;;;;;;;;;;5088397;28;20058;-72
2021/04/07 13:05:42;;;;;;;12.80;3.00;;;;;;;;;;5088620;28;20397;-74
2021/04/07 13:08:08;;;;;;;18.35;3.03;;;;;;;;;;5086563;28;20012;-73
2021/04/07 13:10:38;;;;;;;16.83;3.10;;;;;;;;;;5088074;28;20039;-73
2021/04/07 13:13:04;;;;;;;14.38;2.83;;;;;;;;;;5080151;28;20024;-75
2021/04/07 13:15:30;;;;;;;19.48;2.75;;;;;;;;;;5084369;28;20062;-73
2021/04/07 13:17:56;;;;;;;18.77;3.95;;;;;;;;;;5089700;28;20039;-73
2021/04/07 13:20:24;;;;;;;14.80;3.40;;;;;;;;;;5089180;28;20027;-73
2021/04/07 13:22:50;;;;;;;10.27;3.15;;;;;;;;;;5089936;28;20083;-72
2021/04/07 13:25:16;;;;;;;20.90;3.63;;;;;;;;;;5092795;28;20078;-73
2021/04/07 13:27:42;;;;;;;11.10;2.38;;;;;;;;;;5077631;28;20032;-73
2021/04/07 13:30:09;;;;;;;17.90;2.50;;;;;;;;;;5084339;28;20025;-73
2021/04/07 13:32:37;;;;;;;16.60;4.28;;;;;;;;;;5086956;28;20481;-72
2021/04/07 13:37:36;;;;;;;15.48;2.70;;;;;;;;;;5087141;28;20032;-75
2021/04/07 13:40:10;;;;;;;22.90;3.47;;;;;;;;;;5090501;28;20077;-74
2021/04/07 13:45:11;;;;;;;23.67;4.05;;;;;;;;;;5091477;28;20028;-74
2021/04/07 13:47:40;;;;;;;20.45;3.58;;;;;;;;;;5085922;28;20023;-72
2021/04/07 13:50:07;;;;;;;14.63;3.03;;;;;;;;;;5089786;28;20016;-72
2021/04/07 13:52:33;;;;;;;13.23;3.30;;;;;;;;;;5089893;28;20024;-73
2021/04/07 13:54:59;;;;;;;13.23;2.72;;;;;;;;;;5089115;28;20034;-72
2021/04/07 13:57:29;;;;;;;20.30;3.30;;;;;;;;;;5083104;28;20012;-71
2021/04/07 13:59:58;;;;;;;16.33;3.45;;;;;;;;;;5089684;28;20438;-72
2021/04/07 14:02:26;;;;;;;18.02;3.30;;;;;;;;;;5083793;28;20043;-72
2021/04/07 14:04:53;;;;;;;11.93;2.15;;;;;;;;;;5091780;28;20077;-70
2021/04/07 14:07:19;;;;;;;14.15;2.38;;;;;;;;;;5089085;28;20173;-71
2021/04/07 14:09:49;;;;;;;11.80;2.63;;;;;;;;;;5086665;28;20383;-71
2021/04/07 14:12:18;;;;;;;11.10;2.17;;;;;;;;;;5088321;28;20024;-73
2021/04/07 14:14:44;;;;;;;15.23;2.90;;;;;;;;;;5091350;28;20048;-72
2021/04/07 14:17:10;;;;;;;20.85;3.05;;;;;;;;;;5090597;28;20024;-71
2021/04/07 14:19:36;;;;;;;14.85;2.58;;;;;;;;;;5087863;28;20024;-71
2021/04/07 14:22:04;;;;;;;8.93;1.88;;;;;;;;;;5084055;28;20036;-72
2021/04/07 14:24:30;;;;;;;10.27;3.10;;;;;;;;;;5087350;28;20416;-71
2021/04/07 14:27:01;;;;;;;12.10;2.35;;;;;;;;;;5080507;28;20187;-71
2021/04/07 14:29:28;;;;;;;20.30;3.08;;;;;;;;;;5085323;28;20099;-70
2021/04/07 14:31:54;;;;;;;12.57;2.30;;;;;;;;;;5078406;28;20101;-69
2021/04/07 14:34:20;;;;;;;8.73;2.20;;;;;;;;;;5090533;28;20521;-70
2021/04/07 14:36:46;;;;;;;11.98;2.35;;;;;;;;;;5082797;28;20023;-72
2021/04/07 14:39:12;;;;;;;12.30;2.08;;;;;;;;;;5086395;28;20028;-71
2021/04/07 14:41:38;;;;;;;17.00;3.10;;;;;;;;;;5084901;28;20032;-73
2021/04/07 14:44:05;;;;;;;13.02;2.67;;;;;;;;;;5087900;28;20028;-71